sensor_id;sensor_type;location;lat;lon;timestamp;temperature;humidity
12386;DHT22;6257;57.634;18.310;2023-05-10T00:01:41;7.00;99.90
12386;DHT22;6257;57.634;18.310;2023-05-10T00:04:08;7.00;99.90
12386;DHT22;6257;57.634;18.310;2023-05-10T00:06:35;7.00;99.90
12386;DHT22;6257;57.634;18.310;2023-05-10T00:09:02;7.00;99.90
12386;DHT22;6257;57.634;18.310;2023-05-10T00:11:29;7.00;99.90
12386;DHT22;6257;57.634;18.310;2023-05-10T00:13:58;7.00;99.90
12386;DHT22;6257;57.634;18.310;2023-05-10T00:16:25;7.00;99.90
12386;DHT22;6257;57.634;18.310;2023-05-10T00:18:52;7.00;99.90
12386;DHT22;6257;57.634;18.310;2023-05-10T00:21:19;7.00;99.90
12386;DHT22;6257;57.634;18.310;2023-05-10T00:23:46;7.00;99.90
12386;DHT22;6257;57.634;18.310;2023-05-10T00:26:13;7.00;99.90
12386;DHT22;6257;57.634;18.310;2023-05-10T00:28:40;7.00;99.90
12386;DHT22;6257;57.634;18.310;2023-05-10T00:33:36;7.00;99.90
12386;DHT22;6257;57.634;18.310;2023-05-10T00:36:04;7.00;99.90
12386;DHT22;6257;57.634;18.310;2023-05-10T00:38:33;7.00;99.90
12386;DHT22;6257;57.634;18.310;2023-05-10T00:41:00;7.10;99.90
12386;DHT22;6257;57.634;18.310;2023-05-10T00:43:27;7.10;99.90
12386;DHT22;6257;57.634;18.310;2023-05-10T00:45:54;7.10;99.90
12386;DHT22;6257;57.634;18.310;2023-05-10T00:50:51;7.00;99.90
12386;DHT22;6257;57.634;18.310;2023-05-10T00:53:18;7.10;99.90
12386;DHT22;6257;57.634;18.310;2023-05-10T00:55:46;7.00;99.90
12386;DHT22;6257;57.634;18.310;2023-05-10T00:58:13;7.00;99.90
12386;DHT22;6257;57.634;18.310;2023-05-10T01:00:42;6.90;99.90
12386;DHT22;6257;57.634;18.310;2023-05-10T01:03:10;6.90;99.90
12386;DHT22;6257;57.634;18.310;2023-05-10T01:05:38;6.80;99.90
12386;DHT22;6257;57.634;18.310;2023-05-10T01:08:05;6.80;99.90
12386;DHT22;6257;57.634;18.310;2023-05-10T01:10:34;6.80;99.90
12386;DHT22;6257;57.634;18.310;2023-05-10T01:13:02;6.70;99.90
12386;DHT22;6257;57.634;18.310;2023-05-10T01:15:30;6.70;99.90
12386;DHT22;6257;57.634;18.310;2023-05-10T01:17:58;6.70;99.90
12386;DHT22;6257;57.634;18.310;2023-05-10T01:20:28;6.60;99.90
12386;DHT22;6257;57.634;18.310;2023-05-10T01:23:16;6.60;99.90
12386;DHT22;6257;57.634;18.310;2023-05-10T01:26:12;6.50;99.90
12386;DHT22;6257;57.634;18.310;2023-05-10T01:28:58;6.40;99.90
12386;DHT22;6257;57.634;18.310;2023-05-10T01:32:04;6.40;99.90
12386;DHT22;6257;57.634;18.310;2023-05-10T01:34:35;6.30;99.90
12386;DHT22;6257;57.634;18.310;2023-05-10T01:37:09;6.20;99.90
12386;DHT22;6257;57.634;18.310;2023-05-10T01:39:42;6.20;99.90
12386;DHT22;6257;57.634;18.310;2023-05-10T01:42:14;6.20;99.90
12386;DHT22;6257;57.634;18.310;2023-05-10T01:44:49;6.20;99.90
12386;DHT22;6257;57.634;18.310;2023-05-10T01:47:26;6.20;99.90
12386;DHT22;6257;57.634;18.310;2023-05-10T01:49:56;6.10;99.90
12386;DHT22;6257;57.634;18.310;2023-05-10T01:52:32;6.20;99.90
12386;DHT22;6257;57.634;18.310;2023-05-10T01:55:02;6.20;99.90
12386;DHT22;6257;57.634;18.310;2023-05-10T01:57:33;6.20;99.90
12386;DHT22;6257;57.634;18.310;2023-05-10T02:00:02;6.20;99.90
12386;DHT22;6257;57.634;18.310;2023-05-10T02:02:35;6.20;99.90
12386;DHT22;6257;57.634;18.310;2023-05-10T02:05:05;6.20;99.90
12386;DHT22;6257;57.634;18.310;2023-05-10T02:07:35;6.10;99.90
12386;DHT22;6257;57.634;18.310;2023-05-10T02:10:03;6.10;99.90
12386;DHT22;6257;57.634;18.310;2023-05-10T02:12:32;6.10;99.90
12386;DHT22;6257;57.634;18.310;2023-05-10T02:15:04;6.10;99.90
12386;DHT22;6257;57.634;18.310;2023-05-10T02:17:34;6.10;99.90
12386;DHT22;6257;57.634;18.310;2023-05-10T02:20:03;6.00;99.90
12386;DHT22;6257;57.634;18.310;2023-05-10T02:22:31;6.10;99.90
12386;DHT22;6257;57.634;18.310;2023-05-10T02:25:00;6.10;99.90
12386;DHT22;6257;57.634;18.310;2023-05-10T02:27:28;6.10;99.90
12386;DHT22;6257;57.634;18.310;2023-05-10T02:29:56;6.10;99.90
12386;DHT22;6257;57.634;18.310;2023-05-10T02:32:26;6.20;99.90
12386;DHT22;6257;57.634;18.310;2023-05-10T02:34:56;6.20;99.90
12386;DHT22;6257;57.634;18.310;2023-05-10T02:37:24;6.20;99.90
12386;DHT22;6257;57.634;18.310;2023-05-10T02:39:54;6.20;99.90
12386;DHT22;6257;57.634;18.310;2023-05-10T02:42:25;6.20;99.90
12386;DHT22;6257;57.634;18.310;2023-05-10T02:44:59;6.30;99.90
12386;DHT22;6257;57.634;18.310;2023-05-10T02:47:26;6.30;99.90
12386;DHT22;6257;57.634;18.310;2023-05-10T02:49:55;6.30;99.90
12386;DHT22;6257;57.634;18.310;2023-05-10T02:52:25;6.40;99.90
12386;DHT22;6257;57.634;18.310;2023-05-10T02:54:55;6.40;99.90
12386;DHT22;6257;57.634;18.310;2023-05-10T02:57:27;6.40;99.90
12386;DHT22;6257;57.634;18.310;2023-05-10T02:59:54;6.50;99.90
12386;DHT22;6257;57.634;18.310;2023-05-10T03:02:22;6.50;99.90
12386;DHT22;6257;57.634;18.310;2023-05-10T03:07:18;6.60;99.90
12386;DHT22;6257;57.634;18.310;2023-05-10T03:09:47;6.60;99.90
12386;DHT22;6257;57.634;18.310;2023-05-10T03:12:19;6.70;99.90
12386;DHT22;6257;57.634;18.310;2023-05-10T03:15:00;6.70;99.90
12386;DHT22;6257;57.634;18.310;2023-05-10T03:17:31;6.70;99.90
12386;DHT22;6257;57.634;18.310;2023-05-10T03:20:06;6.80;99.90
12386;DHT22;6257;57.634;18.310;2023-05-10T03:22:37;6.80;99.90
12386;DHT22;6257;57.634;18.310;2023-05-10T03:25:06;6.90;99.90
12386;DHT22;6257;57.634;18.310;2023-05-10T03:27:36;6.90;99.90
12386;DHT22;6257;57.634;18.310;2023-05-10T03:30:04;7.00;99.90
12386;DHT22;6257;57.634;18.310;2023-05-10T03:32:32;7.00;99.90
12386;DHT22;6257;57.634;18.310;2023-05-10T03:35:00;7.10;99.90
12386;DHT22;6257;57.634;18.310;2023-05-10T03:37:27;7.20;99.90
12386;DHT22;6257;57.634;18.310;2023-05-10T03:39:56;7.20;99.90
12386;DHT22;6257;57.634;18.310;2023-05-10T03:42:23;7.20;99.90
12386;DHT22;6257;57.634;18.310;2023-05-10T03:44:50;7.30;99.90
12386;DHT22;6257;57.634;18.310;2023-05-10T03:47:17;7.30;99.90
12386;DHT22;6257;57.634;18.310;2023-05-10T03:49:44;7.40;99.90
12386;DHT22;6257;57.634;18.310;2023-05-10T03:52:11;7.50;99.90
12386;DHT22;6257;57.634;18.310;2023-05-10T03:54:38;7.60;99.90
12386;DHT22;6257;57.634;18.310;2023-05-10T03:57:07;7.60;99.90
12386;DHT22;6257;57.634;18.310;2023-05-10T03:59:35;7.60;99.90
12386;DHT22;6257;57.634;18.310;2023-05-10T04:02:02;7.70;99.90
12386;DHT22;6257;57.634;18.310;2023-05-10T04:04:29;7.80;99.90
12386;DHT22;6257;57.634;18.310;2023-05-10T04:06:56;7.90;99.90
12386;DHT22;6257;57.634;18.310;2023-05-10T04:09:23;8.00;99.90
12386;DHT22;6257;57.634;18.310;2023-05-10T04:11:50;8.20;99.90
12386;DHT22;6257;57.634;18.310;2023-05-10T04:21:43;8.70;99.90
12386;DHT22;6257;57.634;18.310;2023-05-10T04:24:10;8.90;99.90
12386;DHT22;6257;57.634;18.310;2023-05-10T04:26:37;9.10;99.90
12386;DHT22;6257;57.634;18.310;2023-05-10T04:29:05;9.20;99.90
12386;DHT22;6257;57.634;18.310;2023-05-10T04:34:01;9.50;99.90
12386;DHT22;6257;57.634;18.310;2023-05-10T04:38:58;9.70;99.90
12386;DHT22;6257;57.634;18.310;2023-05-10T04:41:25;9.80;99.90
12386;DHT22;6257;57.634;18.310;2023-05-10T04:43:52;9.80;99.90
12386;DHT22;6257;57.634;18.310;2023-05-10T04:46:19;10.00;99.90
12386;DHT22;6257;57.634;18.310;2023-05-10T04:48:47;10.10;99.90
12386;DHT22;6257;57.634;18.310;2023-05-10T04:51:14;10.20;99.90
12386;DHT22;6257;57.634;18.310;2023-05-10T04:53:41;10.30;99.90
12386;DHT22;6257;57.634;18.310;2023-05-10T04:56:08;10.40;99.90
12386;DHT22;6257;57.634;18.310;2023-05-10T04:58:36;6.80;99.90
12386;DHT22;6257;57.634;18.310;2023-05-10T05:01:06;10.60;99.90
12386;DHT22;6257;57.634;18.310;2023-05-10T05:03:33;10.70;99.90
12386;DHT22;6257;57.634;18.310;2023-05-10T05:06:02;10.90;99.90
12386;DHT22;6257;57.634;18.310;2023-05-10T05:08:30;11.00;99.90
12386;DHT22;6257;57.634;18.310;2023-05-10T05:10:58;11.00;99.90
12386;DHT22;6257;57.634;18.310;2023-05-10T05:13:25;11.00;99.90
12386;DHT22;6257;57.634;18.310;2023-05-10T05:15:52;11.10;99.90
12386;DHT22;6257;57.634;18.310;2023-05-10T05:20:48;11.20;99.90
12386;DHT22;6257;57.634;18.310;2023-05-10T05:25:46;11.40;99.60
12386;DHT22;6257;57.634;18.310;2023-05-10T05:30:41;11.50;99.00
12386;DHT22;6257;57.634;18.310;2023-05-10T05:33:08;11.70;98.50
12386;DHT22;6257;57.634;18.310;2023-05-10T05:38:03;11.90;98.00
12386;DHT22;6257;57.634;18.310;2023-05-10T05:40:32;12.00;98.20
12386;DHT22;6257;57.634;18.310;2023-05-10T05:42:59;12.00;98.20
12386;DHT22;6257;57.634;18.310;2023-05-10T05:45:26;12.20;97.70
12386;DHT22;6257;57.634;18.310;2023-05-10T05:47:53;12.30;97.20
12386;DHT22;6257;57.634;18.310;2023-05-10T05:50:20;12.40;97.60
12386;DHT22;6257;57.634;18.310;2023-05-10T05:52:47;12.50;97.40
12386;DHT22;6257;57.634;18.310;2023-05-10T05:55:14;12.60;96.50
12386;DHT22;6257;57.634;18.310;2023-05-10T06:00:11;12.80;96.10
12386;DHT22;6257;57.634;18.310;2023-05-10T06:02:39;13.00;95.40
12386;DHT22;6257;57.634;18.310;2023-05-10T06:05:07;13.10;95.50
12386;DHT22;6257;57.634;18.310;2023-05-10T06:07:34;13.20;95.60
12386;DHT22;6257;57.634;18.310;2023-05-10T06:10:01;13.30;95.10
12386;DHT22;6257;57.634;18.310;2023-05-10T06:12:28;13.30;94.60
12386;DHT22;6257;57.634;18.310;2023-05-10T06:17:24;13.50;94.70
12386;DHT22;6257;57.634;18.310;2023-05-10T06:19:51;13.60;95.10
12386;DHT22;6257;57.634;18.310;2023-05-10T06:22:18;13.60;94.40
12386;DHT22;6257;57.634;18.310;2023-05-10T06:24:45;13.80;94.90
12386;DHT22;6257;57.634;18.310;2023-05-10T06:27:12;13.90;94.80
12386;DHT22;6257;57.634;18.310;2023-05-10T06:29:39;14.00;94.30
12386;DHT22;6257;57.634;18.310;2023-05-10T06:32:08;14.00;94.50
12386;DHT22;6257;57.634;18.310;2023-05-10T06:34:35;14.10;93.70
12386;DHT22;6257;57.634;18.310;2023-05-10T06:37:02;14.30;93.50
12386;DHT22;6257;57.634;18.310;2023-05-10T06:39:29;14.40;93.50
12386;DHT22;6257;57.634;18.310;2023-05-10T06:41:56;14.50;93.00
12386;DHT22;6257;57.634;18.310;2023-05-10T06:44:23;14.50;93.50
12386;DHT22;6257;57.634;18.310;2023-05-10T06:46:50;14.60;93.80
12386;DHT22;6257;57.634;18.310;2023-05-10T06:51:47;14.80;92.00
12386;DHT22;6257;57.634;18.310;2023-05-10T06:54:15;15.00;91.70
12386;DHT22;6257;57.634;18.310;2023-05-10T06:56:42;15.10;91.80
12386;DHT22;6257;57.634;18.310;2023-05-10T06:59:09;15.20;91.60
12386;DHT22;6257;57.634;18.310;2023-05-10T07:01:36;15.40;91.40
12386;DHT22;6257;57.634;18.310;2023-05-10T07:04:03;15.70;89.70
12386;DHT22;6257;57.634;18.310;2023-05-10T07:08:59;16.30;90.30
12386;DHT22;6257;57.634;18.310;2023-05-10T07:11:26;16.40;87.90
12386;DHT22;6257;57.634;18.310;2023-05-10T07:13:53;16.70;85.50
12386;DHT22;6257;57.634;18.310;2023-05-10T07:16:20;16.70;88.20
12386;DHT22;6257;57.634;18.310;2023-05-10T07:18:48;16.80;86.00
12386;DHT22;6257;57.634;18.310;2023-05-10T07:21:16;17.00;83.30
12386;DHT22;6257;57.634;18.310;2023-05-10T07:26:11;17.30;82.00
12386;DHT22;6257;57.634;18.310;2023-05-10T07:28:40;17.60;80.60
12386;DHT22;6257;57.634;18.310;2023-05-10T07:31:07;17.90;81.70
12386;DHT22;6257;57.634;18.310;2023-05-10T07:33:34;18.20;79.50
12386;DHT22;6257;57.634;18.310;2023-05-10T07:36:01;18.20;76.30
12386;DHT22;6257;57.634;18.310;2023-05-10T07:38:28;18.10;77.10
12386;DHT22;6257;57.634;18.310;2023-05-10T07:40:56;18.20;78.00
12386;DHT22;6257;57.634;18.310;2023-05-10T07:43:24;18.40;77.40
12386;DHT22;6257;57.634;18.310;2023-05-10T07:45:51;18.80;76.70
12386;DHT22;6257;57.634;18.310;2023-05-10T07:48:18;19.30;76.10
12386;DHT22;6257;57.634;18.310;2023-05-10T07:50:45;19.50;72.80
12386;DHT22;6257;57.634;18.310;2023-05-10T07:53:12;19.50;71.40
12386;DHT22;6257;57.634;18.310;2023-05-10T07:55:39;19.30;70.80
12386;DHT22;6257;57.634;18.310;2023-05-10T07:58:07;19.50;73.20
12386;DHT22;6257;57.634;18.310;2023-05-10T08:00:35;19.70;72.10
12386;DHT22;6257;57.634;18.310;2023-05-10T08:03:04;20.20;72.90
12386;DHT22;6257;57.634;18.310;2023-05-10T08:05:31;20.60;71.20
12386;DHT22;6257;57.634;18.310;2023-05-10T08:07:58;21.10;67.50
12386;DHT22;6257;57.634;18.310;2023-05-10T08:10:26;21.40;66.40
12386;DHT22;6257;57.634;18.310;2023-05-10T08:12:53;22.00;66.40
12386;DHT22;6257;57.634;18.310;2023-05-10T08:17:48;22.70;63.40
12386;DHT22;6257;57.634;18.310;2023-05-10T08:20:15;23.70;62.30
12386;DHT22;6257;57.634;18.310;2023-05-10T08:22:44;24.10;60.10
12386;DHT22;6257;57.634;18.310;2023-05-10T08:25:12;24.20;60.70
12386;DHT22;6257;57.634;18.310;2023-05-10T08:27:38;24.30;58.80
12386;DHT22;6257;57.634;18.310;2023-05-10T08:32:35;24.40;57.30
12386;DHT22;6257;57.634;18.310;2023-05-10T08:35:03;24.80;57.60
12386;DHT22;6257;57.634;18.310;2023-05-10T08:37:31;24.90;58.60
12386;DHT22;6257;57.634;18.310;2023-05-10T08:39:58;24.30;56.70
12386;DHT22;6257;57.634;18.310;2023-05-10T08:42:28;24.60;55.70
12386;DHT22;6257;57.634;18.310;2023-05-10T08:44:57;24.20;54.20
12386;DHT22;6257;57.634;18.310;2023-05-10T08:49:55;23.50;55.40
12386;DHT22;6257;57.634;18.310;2023-05-10T08:52:26;23.50;55.70
12386;DHT22;6257;57.634;18.310;2023-05-10T08:54:55;22.70;55.80
12386;DHT22;6257;57.634;18.310;2023-05-10T08:57:22;21.40;55.90
12386;DHT22;6257;57.634;18.310;2023-05-10T08:59:49;20.40;56.00
12386;DHT22;6257;57.634;18.310;2023-05-10T09:02:17;19.70;59.20
12386;DHT22;6257;57.634;18.310;2023-05-10T09:04:45;19.30;59.70
12386;DHT22;6257;57.634;18.310;2023-05-10T09:09:41;18.70;59.10
12386;DHT22;6257;57.634;18.310;2023-05-10T09:12:10;18.50;61.40
12386;DHT22;6257;57.634;18.310;2023-05-10T09:14:38;18.60;61.20
12386;DHT22;6257;57.634;18.310;2023-05-10T09:17:05;18.60;61.70
12386;DHT22;6257;57.634;18.310;2023-05-10T09:19:33;18.50;59.30
12386;DHT22;6257;57.634;18.310;2023-05-10T09:22:00;18.40;62.10
12386;DHT22;6257;57.634;18.310;2023-05-10T09:24:30;18.60;61.10
12386;DHT22;6257;57.634;18.310;2023-05-10T09:26:57;18.60;60.20
12386;DHT22;6257;57.634;18.310;2023-05-10T09:29:24;18.40;59.80
12386;DHT22;6257;57.634;18.310;2023-05-10T09:31:52;18.50;62.30
12386;DHT22;6257;57.634;18.310;2023-05-10T09:34:22;18.50;60.40
12386;DHT22;6257;57.634;18.310;2023-05-10T09:36:56;18.40;61.30
12386;DHT22;6257;57.634;18.310;2023-05-10T09:39:32;18.30;62.20
12386;DHT22;6257;57.634;18.310;2023-05-10T09:42:01;18.40;62.70
12386;DHT22;6257;57.634;18.310;2023-05-10T09:44:30;18.30;60.10
12386;DHT22;6257;57.634;18.310;2023-05-10T09:46:57;18.30;60.90
12386;DHT22;6257;57.634;18.310;2023-05-10T09:49:24;18.10;61.00
12386;DHT22;6257;57.634;18.310;2023-05-10T09:52:02;18.20;60.80
12386;DHT22;6257;57.634;18.310;2023-05-10T09:56:58;18.30;59.20
12386;DHT22;6257;57.634;18.310;2023-05-10T09:59:27;18.30;59.20
12386;DHT22;6257;57.634;18.310;2023-05-10T10:01:56;18.20;59.90
12386;DHT22;6257;57.634;18.310;2023-05-10T10:04:24;18.20;60.60
12386;DHT22;6257;57.634;18.310;2023-05-10T10:07:02;18.10;60.90
12386;DHT22;6257;57.634;18.310;2023-05-10T10:09:30;18.30;62.60
12386;DHT22;6257;57.634;18.310;2023-05-10T10:11:59;18.20;59.70
12386;DHT22;6257;57.634;18.310;2023-05-10T10:14:26;18.10;61.80
12386;DHT22;6257;57.634;18.310;2023-05-10T10:16:54;18.10;60.30
12386;DHT22;6257;57.634;18.310;2023-05-10T10:19:21;17.90;59.70
12386;DHT22;6257;57.634;18.310;2023-05-10T10:21:49;17.80;59.70
12386;DHT22;6257;57.634;18.310;2023-05-10T10:24:17;17.80;60.00
12386;DHT22;6257;57.634;18.310;2023-05-10T10:29:21;17.80;59.50
12386;DHT22;6257;57.634;18.310;2023-05-10T10:31:55;17.80;59.00
12386;DHT22;6257;57.634;18.310;2023-05-10T10:34:26;17.80;60.30
12386;DHT22;6257;57.634;18.310;2023-05-10T10:36:56;17.80;61.10
12386;DHT22;6257;57.634;18.310;2023-05-10T10:39:24;17.80;59.40
12386;DHT22;6257;57.634;18.310;2023-05-10T10:41:52;17.50;59.00
12386;DHT22;6257;57.634;18.310;2023-05-10T10:44:26;17.50;59.80
12386;DHT22;6257;57.634;18.310;2023-05-10T10:47:01;17.50;60.20
12386;DHT22;6257;57.634;18.310;2023-05-10T10:49:31;17.50;59.40
12386;DHT22;6257;57.634;18.310;2023-05-10T10:52:18;17.60;61.40
12386;DHT22;6257;57.634;18.310;2023-05-10T10:54:51;17.50;60.30
12386;DHT22;6257;57.634;18.310;2023-05-10T10:57:19;17.40;61.00
12386;DHT22;6257;57.634;18.310;2023-05-10T10:59:49;17.30;61.60
12386;DHT22;6257;57.634;18.310;2023-05-10T11:02:43;17.40;62.10
12386;DHT22;6257;57.634;18.310;2023-05-10T11:05:35;17.50;61.40
12386;DHT22;6257;57.634;18.310;2023-05-10T11:08:25;17.50;61.00
12386;DHT22;6257;57.634;18.310;2023-05-10T11:11:04;17.40;60.00
12386;DHT22;6257;57.634;18.310;2023-05-10T11:13:34;17.30;59.60
12386;DHT22;6257;57.634;18.310;2023-05-10T11:16:14;17.40;60.30
12386;DHT22;6257;57.634;18.310;2023-05-10T11:18:58;17.20;60.00
12386;DHT22;6257;57.634;18.310;2023-05-10T11:21:27;17.20;61.40
12386;DHT22;6257;57.634;18.310;2023-05-10T11:23:55;17.20;60.10
12386;DHT22;6257;57.634;18.310;2023-05-10T11:26:23;17.20;60.30
12386;DHT22;6257;57.634;18.310;2023-05-10T11:28:53;17.20;59.30
12386;DHT22;6257;57.634;18.310;2023-05-10T11:33:53;17.20;60.00
12386;DHT22;6257;57.634;18.310;2023-05-10T11:36:23;17.30;63.10
12386;DHT22;6257;57.634;18.310;2023-05-10T11:38:51;17.20;61.60
12386;DHT22;6257;57.634;18.310;2023-05-10T11:41:19;17.10;60.00
12386;DHT22;6257;57.634;18.310;2023-05-10T11:43:49;17.00;59.90
12386;DHT22;6257;57.634;18.310;2023-05-10T11:46:18;16.90;59.20
12386;DHT22;6257;57.634;18.310;2023-05-10T11:48:50;16.90;61.00
12386;DHT22;6257;57.634;18.310;2023-05-10T11:51:20;17.00;59.40
12386;DHT22;6257;57.634;18.310;2023-05-10T11:53:48;17.00;60.30
12386;DHT22;6257;57.634;18.310;2023-05-10T11:56:16;17.00;60.30
12386;DHT22;6257;57.634;18.310;2023-05-10T11:58:43;17.10;60.20
12386;DHT22;6257;57.634;18.310;2023-05-10T12:01:10;17.00;59.70
12386;DHT22;6257;57.634;18.310;2023-05-10T12:03:38;16.90;59.60
12386;DHT22;6257;57.634;18.310;2023-05-10T12:06:08;16.80;60.00
12386;DHT22;6257;57.634;18.310;2023-05-10T12:08:35;17.10;60.40
12386;DHT22;6257;57.634;18.310;2023-05-10T12:11:06;16.80;59.70
12386;DHT22;6257;57.634;18.310;2023-05-10T12:13:38;16.80;61.20
12386;DHT22;6257;57.634;18.310;2023-05-10T12:16:16;16.70;59.40
12386;DHT22;6257;57.634;18.310;2023-05-10T12:18:44;16.70;60.20
12386;DHT22;6257;57.634;18.310;2023-05-10T12:23:41;16.90;58.60
12386;DHT22;6257;57.634;18.310;2023-05-10T12:26:09;16.80;59.50
12386;DHT22;6257;57.634;18.310;2023-05-10T12:28:37;16.90;59.50
12386;DHT22;6257;57.634;18.310;2023-05-10T12:31:05;16.80;59.40
12386;DHT22;6257;57.634;18.310;2023-05-10T12:33:36;16.70;59.80
12386;DHT22;6257;57.634;18.310;2023-05-10T12:36:05;16.70;59.80
12386;DHT22;6257;57.634;18.310;2023-05-10T12:38:36;16.70;59.10
12386;DHT22;6257;57.634;18.310;2023-05-10T12:41:05;16.70;59.30
12386;DHT22;6257;57.634;18.310;2023-05-10T12:43:32;16.60;59.30
12386;DHT22;6257;57.634;18.310;2023-05-10T12:46:04;16.70;60.50
12386;DHT22;6257;57.634;18.310;2023-05-10T12:48:32;16.80;59.00
12386;DHT22;6257;57.634;18.310;2023-05-10T12:50:59;16.70;60.60
12386;DHT22;6257;57.634;18.310;2023-05-10T12:53:26;16.70;59.20
12386;DHT22;6257;57.634;18.310;2023-05-10T12:55:55;16.70;61.10
12386;DHT22;6257;57.634;18.310;2023-05-10T12:58:22;16.70;58.10
12386;DHT22;6257;57.634;18.310;2023-05-10T13:00:50;16.60;56.70
12386;DHT22;6257;57.634;18.310;2023-05-10T13:03:18;16.50;58.50
12386;DHT22;6257;57.634;18.310;2023-05-10T13:05:45;16.10;57.60
12386;DHT22;6257;57.634;18.310;2023-05-10T13:08:12;16.50;59.00
12386;DHT22;6257;57.634;18.310;2023-05-10T13:10:39;16.70;59.40
12386;DHT22;6257;57.634;18.310;2023-05-10T13:15:36;16.60;57.80
12386;DHT22;6257;57.634;18.310;2023-05-10T13:18:03;16.50;58.40
12386;DHT22;6257;57.634;18.310;2023-05-10T13:20:30;16.50;58.20
12386;DHT22;6257;57.634;18.310;2023-05-10T13:22:57;16.60;57.50
12386;DHT22;6257;57.634;18.310;2023-05-10T13:25:24;16.60;58.50
12386;DHT22;6257;57.634;18.310;2023-05-10T13:27:51;16.50;58.10
12386;DHT22;6257;57.634;18.310;2023-05-10T13:30:20;16.50;59.60
12386;DHT22;6257;57.634;18.310;2023-05-10T13:32:48;16.60;60.80
12386;DHT22;6257;57.634;18.310;2023-05-10T13:35:15;16.60;59.00
12386;DHT22;6257;57.634;18.310;2023-05-10T13:37:42;16.50;57.20
12386;DHT22;6257;57.634;18.310;2023-05-10T13:40:10;16.40;57.20
12386;DHT22;6257;57.634;18.310;2023-05-10T13:42:37;16.30;57.90
12386;DHT22;6257;57.634;18.310;2023-05-10T13:45:06;16.40;60.30
12386;DHT22;6257;57.634;18.310;2023-05-10T13:47:34;16.60;57.00
12386;DHT22;6257;57.634;18.310;2023-05-10T13:50:01;16.60;58.10
12386;DHT22;6257;57.634;18.310;2023-05-10T13:52:29;16.60;58.40
12386;DHT22;6257;57.634;18.310;2023-05-10T13:54:56;16.50;58.80
12386;DHT22;6257;57.634;18.310;2023-05-10T13:57:23;16.50;57.90
12386;DHT22;6257;57.634;18.310;2023-05-10T13:59:51;16.50;57.90
12386;DHT22;6257;57.634;18.310;2023-05-10T14:09:43;16.30;57.80
12386;DHT22;6257;57.634;18.310;2023-05-10T14:12:10;16.40;57.40
12386;DHT22;6257;57.634;18.310;2023-05-10T14:14:37;16.40;58.70
12386;DHT22;6257;57.634;18.310;2023-05-10T14:17:04;16.40;58.80
12386;DHT22;6257;57.634;18.310;2023-05-10T14:19:31;16.30;57.90
12386;DHT22;6257;57.634;18.310;2023-05-10T14:22:01;16.30;59.40
12386;DHT22;6257;57.634;18.310;2023-05-10T14:24:32;16.30;57.70
12386;DHT22;6257;57.634;18.310;2023-05-10T14:27:34;16.30;58.10
12386;DHT22;6257;57.634;18.310;2023-05-10T14:35:48;16.40;58.10
12386;DHT22;6257;57.634;18.310;2023-05-10T14:40:45;16.30;58.20
12386;DHT22;6257;57.634;18.310;2023-05-10T14:43:36;16.10;57.60
12386;DHT22;6257;57.634;18.310;2023-05-10T14:50:25;16.10;59.30
12386;DHT22;6257;57.634;18.310;2023-05-10T14:52:49;16.20;57.90
12386;DHT22;6257;57.634;18.310;2023-05-10T14:55:50;16.20;57.60
12386;DHT22;6257;57.634;18.310;2023-05-10T14:58:28;16.10;56.80
12386;DHT22;6257;57.634;18.310;2023-05-10T15:03:43;16.10;57.20
12386;DHT22;6257;57.634;18.310;2023-05-10T15:13:34;15.90;58.30
12386;DHT22;6257;57.634;18.310;2023-05-10T15:16:01;15.90;58.20
12386;DHT22;6257;57.634;18.310;2023-05-10T15:18:28;15.80;58.30
12386;DHT22;6257;57.634;18.310;2023-05-10T15:20:55;15.70;57.80
12386;DHT22;6257;57.634;18.310;2023-05-10T15:23:23;15.60;59.10
12386;DHT22;6257;57.634;18.310;2023-05-10T15:25:50;15.70;58.90
12386;DHT22;6257;57.634;18.310;2023-05-10T15:31:26;15.80;59.70
12386;DHT22;6257;57.634;18.310;2023-05-10T15:34:25;15.80;59.20
12386;DHT22;6257;57.634;18.310;2023-05-10T15:37:16;15.80;59.80
12386;DHT22;6257;57.634;18.310;2023-05-10T15:47:55;15.80;58.50
12386;DHT22;6257;57.634;18.310;2023-05-10T15:55:19;15.70;59.70
12386;DHT22;6257;57.634;18.310;2023-05-10T15:57:46;15.70;59.60
12386;DHT22;6257;57.634;18.310;2023-05-10T16:00:16;15.70;59.80
12386;DHT22;6257;57.634;18.310;2023-05-10T16:02:43;15.70;61.00
12386;DHT22;6257;57.634;18.310;2023-05-10T16:05:10;15.70;60.50
12386;DHT22;6257;57.634;18.310;2023-05-10T16:07:38;15.70;59.50
12386;DHT22;6257;57.634;18.310;2023-05-10T16:10:08;15.60;59.40
12386;DHT22;6257;57.634;18.310;2023-05-10T16:12:36;15.50;59.30
12386;DHT22;6257;57.634;18.310;2023-05-10T16:15:04;15.50;60.80
12386;DHT22;6257;57.634;18.310;2023-05-10T16:20:00;15.50;61.50
12386;DHT22;6257;57.634;18.310;2023-05-10T16:22:27;15.50;62.40
12386;DHT22;6257;57.634;18.310;2023-05-10T16:24:55;15.60;61.70
12386;DHT22;6257;57.634;18.310;2023-05-10T16:27:23;15.50;61.30
12386;DHT22;6257;57.634;18.310;2023-05-10T16:29:53;15.60;60.40
12386;DHT22;6257;57.634;18.310;2023-05-10T16:32:20;15.60;60.50
12386;DHT22;6257;57.634;18.310;2023-05-10T16:37:17;15.50;59.50
12386;DHT22;6257;57.634;18.310;2023-05-10T16:39:45;15.50;60.00
12386;DHT22;6257;57.634;18.310;2023-05-10T16:42:12;15.40;59.60
12386;DHT22;6257;57.634;18.310;2023-05-10T16:44:39;15.30;60.80
12386;DHT22;6257;57.634;18.310;2023-05-10T16:47:07;15.30;59.50
12386;DHT22;6257;57.634;18.310;2023-05-10T16:49:35;15.30;59.90
12386;DHT22;6257;57.634;18.310;2023-05-10T16:52:03;15.30;59.60
12386;DHT22;6257;57.634;18.310;2023-05-10T16:54:30;15.30;60.00
12386;DHT22;6257;57.634;18.310;2023-05-10T17:01:53;15.10;59.60
12386;DHT22;6257;57.634;18.310;2023-05-10T17:04:20;15.10;61.30
12386;DHT22;6257;57.634;18.310;2023-05-10T17:06:48;15.10;61.00
12386;DHT22;6257;57.634;18.310;2023-05-10T17:11:44;15.00;60.00
12386;DHT22;6257;57.634;18.310;2023-05-10T17:14:12;15.00;60.40
12386;DHT22;6257;57.634;18.310;2023-05-10T17:16:39;14.90;61.40
12386;DHT22;6257;57.634;18.310;2023-05-10T17:19:07;14.90;62.60
12386;DHT22;6257;57.634;18.310;2023-05-10T17:24:01;14.80;62.30
12386;DHT22;6257;57.634;18.310;2023-05-10T17:26:30;14.80;62.40
12386;DHT22;6257;57.634;18.310;2023-05-10T17:28:57;14.70;63.30
12386;DHT22;6257;57.634;18.310;2023-05-10T17:31:24;14.70;62.10
12386;DHT22;6257;57.634;18.310;2023-05-10T17:33:52;14.70;62.10
12386;DHT22;6257;57.634;18.310;2023-05-10T17:36:19;14.60;61.80
12386;DHT22;6257;57.634;18.310;2023-05-10T17:38:46;14.60;62.30
12386;DHT22;6257;57.634;18.310;2023-05-10T17:41:14;14.60;62.40
12386;DHT22;6257;57.634;18.310;2023-05-10T17:48:38;14.40;62.80
12386;DHT22;6257;57.634;18.310;2023-05-10T17:51:05;14.30;62.70
12386;DHT22;6257;57.634;18.310;2023-05-10T17:53:33;14.30;62.70
12386;DHT22;6257;57.634;18.310;2023-05-10T17:56:00;14.20;64.60
12386;DHT22;6257;57.634;18.310;2023-05-10T17:58:27;14.20;64.60